Página principal
METAR-TAF:

METAR-TAF

Aeroportos :

Hagåtña, Guam, Estados Unidos

latitude: 13-29N, longitude: 144-48E, altura: 91 m

Observação actual do tempo

O boletim foi feito há 49 minutos, às 09:54 UTC
Vento 4 kt de es-nordeste
Temperatura 28°C
Humidade 94%
Pressão 1009 hPa
Visibilidade: 16.1 km
Poucas nuvensa uma altura de 1500 ft
Poucas nuvensa uma altura de 3200 ft
Nuvens dispersasa uma altura de 3900 ft

METAR: PGUM 200954Z 06004KT 10SM FEW015 FEW032 SCT039 28/27 A2979 RMK AO2 SLP078 T02830267

Hora: 20:43 (10:43 UTC)

Previsão

O boletim foi feito há 5 horas e 12 minutos, às 05:31 UTC
Previsão válida de 20 às 06 UTC a 21 às 12 UTC
Vento 7 kt de este
Visibilidade: 10 km
Nuvens dispersasa uma altura de 1400 ft
Nuvens dispersasa uma altura de 5000 ft
aguaceiros nas vizinhanças

TAF: PGUM 200531Z 2006/2112 09007KT P6SM VCSH SCT014 SCT050

Observações e previsões do tempo de mais de 4000 aeroportos (mensagens METAR e TAF).

As estações disponíveis são os pontos amarelos e vermelhos sobre o mapa.

Mova o rato sobre o mapa para ver o nome da estação.

Depois clique no ponto para visualizar as observações e previsões meteorológicas.

Para alterar o mapa : clique nos botões verdes com uma cruz preta para aumentar o zoom; no botão verde com uma pitada de zoom; ou nas setas verdes para mapas adjacentes.


METAR-TAF: